sensor_id;sensor_type;location;lat;lon;timestamp;pressure;altitude;pressure_sealevel;temperature;humidity
65359;BME280;52491;45.900;6.346;2022-07-06T00:01:30;94388.13;;;26.90;40.20
65359;BME280;52491;45.900;6.346;2022-07-06T00:03:55;94387.84;;;26.86;40.07
65359;BME280;52491;45.900;6.346;2022-07-06T00:06:22;94383.56;;;26.85;40.11
65359;BME280;52491;45.900;6.346;2022-07-06T00:08:47;94388.09;;;26.85;40.21
65359;BME280;52491;45.900;6.346;2022-07-06T00:11:13;94391.56;;;26.85;40.10
65359;BME280;52491;45.900;6.346;2022-07-06T00:13:39;94400.41;;;26.86;40.13
65359;BME280;52491;45.900;6.346;2022-07-06T00:16:04;94398.81;;;26.85;39.93
65359;BME280;52491;45.900;6.346;2022-07-06T00:18:30;94401.47;;;26.85;40.04
65359;BME280;52491;45.900;6.346;2022-07-06T00:20:56;94400.69;;;26.84;39.74
65359;BME280;52491;45.900;6.346;2022-07-06T00:23:21;94409.78;;;26.83;40.20
65359;BME280;52491;45.900;6.346;2022-07-06T00:25:47;94406.28;;;26.83;39.86
65359;BME280;52491;45.900;6.346;2022-07-06T00:28:14;94401.75;;;26.83;40.00
65359;BME280;52491;45.900;6.346;2022-07-06T00:30:39;94400.41;;;26.81;39.88
65359;BME280;52491;45.900;6.346;2022-07-06T00:33:06;94394.00;;;26.82;40.10
65359;BME280;52491;45.900;6.346;2022-07-06T00:35:32;94395.59;;;26.83;39.87
65359;BME280;52491;45.900;6.346;2022-07-06T00:37:57;94400.13;;;26.82;40.00
65359;BME280;52491;45.900;6.346;2022-07-06T00:40:23;94397.47;;;26.82;39.67
65359;BME280;52491;45.900;6.346;2022-07-06T00:42:49;94404.44;;;26.83;39.51
65359;BME280;52491;45.900;6.346;2022-07-06T00:45:16;94404.44;;;26.83;39.76
65359;BME280;52491;45.900;6.346;2022-07-06T00:47:42;94402.81;;;26.82;39.81
65359;BME280;52491;45.900;6.346;2022-07-06T00:50:10;94405.50;;;26.82;39.53
65359;BME280;52491;45.900;6.346;2022-07-06T00:52:59;94398.53;;;26.81;39.66
65359;BME280;52491;45.900;6.346;2022-07-06T00:55:27;94399.59;;;26.80;39.71
65359;BME280;52491;45.900;6.346;2022-07-06T00:57:54;94389.97;;;26.79;39.57
65359;BME280;52491;45.900;6.346;2022-07-06T01:00:22;94385.41;;;26.79;39.52
65359;BME280;52491;45.900;6.346;2022-07-06T01:02:48;94384.63;;;26.79;39.77
65359;BME280;52491;45.900;6.346;2022-07-06T01:05:15;94377.66;;;26.78;39.72
65359;BME280;52491;45.900;6.346;2022-07-06T01:07:42;94372.31;;;26.78;39.69
65359;BME280;52491;45.900;6.346;2022-07-06T01:10:09;94374.19;;;26.77;39.63
65359;BME280;52491;45.900;6.346;2022-07-06T01:12:36;94374.44;;;26.76;39.47
65359;BME280;52491;45.900;6.346;2022-07-06T01:15:04;94369.09;;;26.76;39.79
65359;BME280;52491;45.900;6.346;2022-07-06T01:17:30;94369.09;;;26.76;39.42
65359;BME280;52491;45.900;6.346;2022-07-06T01:19:57;94363.75;;;26.76;39.47
65359;BME280;52491;45.900;6.346;2022-07-06T01:22:23;94366.44;;;26.76;39.53
65359;BME280;52491;45.900;6.346;2022-07-06T01:24:48;94358.66;;;26.74;39.46
65359;BME280;52491;45.900;6.346;2022-07-06T01:27:14;94359.47;;;26.75;39.79
65359;BME280;52491;45.900;6.346;2022-07-06T01:29:40;94355.97;;;26.74;39.71
65359;BME280;52491;45.900;6.346;2022-07-06T01:32:06;94351.72;;;26.73;39.58
65359;BME280;52491;45.900;6.346;2022-07-06T01:34:32;94352.50;;;26.74;39.71
65359;BME280;52491;45.900;6.346;2022-07-06T01:36:57;94353.31;;;26.74;39.33
65359;BME280;52491;45.900;6.346;2022-07-06T01:39:23;94350.63;;;26.74;39.58
65359;BME280;52491;45.900;6.346;2022-07-06T01:41:49;94349.84;;;26.74;39.29
65359;BME280;52491;45.900;6.346;2022-07-06T01:44:14;94353.59;;;26.73;39.47
65359;BME280;52491;45.900;6.346;2022-07-06T01:46:40;94353.59;;;26.73;39.66
65359;BME280;52491;45.900;6.346;2022-07-06T01:49:06;94345.56;;;26.73;39.57
65359;BME280;52491;45.900;6.346;2022-07-06T01:51:31;94353.84;;;26.71;39.47
65359;BME280;52491;45.900;6.346;2022-07-06T01:53:57;94355.47;;;26.72;39.27
65359;BME280;52491;45.900;6.346;2022-07-06T01:56:23;94350.38;;;26.71;39.33
65359;BME280;52491;45.900;6.346;2022-07-06T01:58:49;94353.31;;;26.69;39.40
65359;BME280;52491;45.900;6.346;2022-07-06T02:01:19;94359.19;;;26.71;39.50
65359;BME280;52491;45.900;6.346;2022-07-06T02:03:46;94359.97;;;26.72;39.35
65359;BME280;52491;45.900;6.346;2022-07-06T02:06:12;94364.03;;;26.69;39.48
65359;BME280;52491;45.900;6.346;2022-07-06T02:08:39;94374.44;;;26.71;39.19
65359;BME280;52491;45.900;6.346;2022-07-06T02:11:05;94369.09;;;26.71;39.21
65359;BME280;52491;45.900;6.346;2022-07-06T02:13:31;94367.50;;;26.70;39.38
65359;BME280;52491;45.900;6.346;2022-07-06T02:15:57;94362.16;;;26.70;39.12
65359;BME280;52491;45.900;6.346;2022-07-06T02:18:23;94361.34;;;26.69;39.79
65359;BME280;52491;45.900;6.346;2022-07-06T02:20:48;94365.06;;;26.68;39.28
65359;BME280;52491;45.900;6.346;2022-07-06T02:23:14;94365.06;;;26.68;39.32
65359;BME280;52491;45.900;6.346;2022-07-06T02:25:40;94366.94;;;26.68;39.28
65359;BME280;52491;45.900;6.346;2022-07-06T02:28:05;94368.53;;;26.69;39.15
65359;BME280;52491;45.900;6.346;2022-07-06T02:30:31;94365.06;;;26.68;39.38
65359;BME280;52491;45.900;6.346;2022-07-06T02:32:56;94359.72;;;26.68;39.16
65359;BME280;52491;45.900;6.346;2022-07-06T02:35:22;94358.13;;;26.67;39.11
65359;BME280;52491;45.900;6.346;2022-07-06T02:37:48;94368.03;;;26.67;39.48
65359;BME280;52491;45.900;6.346;2022-07-06T02:40:13;94368.03;;;26.67;39.04
65359;BME280;52491;45.900;6.346;2022-07-06T02:42:39;94372.81;;;26.65;39.25
65359;BME280;52491;45.900;6.346;2022-07-06T02:45:05;94364.81;;;26.65;39.19
65359;BME280;52491;45.900;6.346;2022-07-06T02:47:31;94377.91;;;26.66;39.07
65359;BME280;52491;45.900;6.346;2022-07-06T02:49:57;94378.97;;;26.65;39.27
65359;BME280;52491;45.900;6.346;2022-07-06T02:52:22;94378.19;;;26.65;38.77
65359;BME280;52491;45.900;6.346;2022-07-06T02:54:48;94385.66;;;26.63;39.17
65359;BME280;52491;45.900;6.346;2022-07-06T02:57:15;94378.72;;;26.67;39.11
65359;BME280;52491;45.900;6.346;2022-07-06T02:59:40;94381.41;;;26.67;39.24
65359;BME280;52491;45.900;6.346;2022-07-06T03:02:07;94378.72;;;26.67;39.04
65359;BME280;52491;45.900;6.346;2022-07-06T03:04:33;94387.53;;;26.67;38.85
65359;BME280;52491;45.900;6.346;2022-07-06T03:06:59;94384.06;;;26.67;38.66
65359;BME280;52491;45.900;6.346;2022-07-06T03:09:26;94377.09;;;26.66;38.85
65359;BME280;52491;45.900;6.346;2022-07-06T03:11:51;94378.19;;;26.65;38.99
65359;BME280;52491;45.900;6.346;2022-07-06T03:14:18;94377.38;;;26.64;38.77
65359;BME280;52491;45.900;6.346;2022-07-06T03:16:43;94373.91;;;26.64;38.56
65359;BME280;52491;45.900;6.346;2022-07-06T03:19:09;94372.03;;;26.64;38.86
65359;BME280;52491;45.900;6.346;2022-07-06T03:21:34;94374.94;;;26.63;38.78
65359;BME280;52491;45.900;6.346;2022-07-06T03:24:00;94367.72;;;26.63;38.79
65359;BME280;52491;45.900;6.346;2022-07-06T03:26:26;94372.28;;;26.63;38.96
65359;BME280;52491;45.900;6.346;2022-07-06T03:28:51;94365.06;;;26.63;38.84
65359;BME280;52491;45.900;6.346;2022-07-06T03:31:17;94372.28;;;26.63;38.79
65359;BME280;52491;45.900;6.346;2022-07-06T03:33:42;94378.44;;;26.63;38.68
65359;BME280;52491;45.900;6.346;2022-07-06T03:36:08;94378.44;;;26.63;38.92
65359;BME280;52491;45.900;6.346;2022-07-06T03:38:35;94372.28;;;26.63;39.13
65359;BME280;52491;45.900;6.346;2022-07-06T03:41:01;94378.72;;;26.62;38.71
65359;BME280;52491;45.900;6.346;2022-07-06T03:43:26;94384.06;;;26.62;39.02
65359;BME280;52491;45.900;6.346;2022-07-06T03:45:52;94384.31;;;26.60;38.92
65359;BME280;52491;45.900;6.346;2022-07-06T03:48:18;94391.28;;;26.61;38.93
65359;BME280;52491;45.900;6.346;2022-07-06T03:50:43;94394.75;;;26.62;38.59
65359;BME280;52491;45.900;6.346;2022-07-06T03:53:09;94390.44;;;26.61;38.74
65359;BME280;52491;45.900;6.346;2022-07-06T03:55:35;94398.47;;;26.61;38.79
65359;BME280;52491;45.900;6.346;2022-07-06T03:58:00;94403.81;;;26.61;38.71
65359;BME280;52491;45.900;6.346;2022-07-06T04:00:26;94399.56;;;26.60;38.65
65359;BME280;52491;45.900;6.346;2022-07-06T04:02:51;94404.91;;;26.60;38.60
65359;BME280;52491;45.900;6.346;2022-07-06T04:05:17;94405.97;;;26.59;38.64
65359;BME280;52491;45.900;6.346;2022-07-06T04:07:49;94412.13;;;26.59;38.83
65359;BME280;52491;45.900;6.346;2022-07-06T04:10:16;94403.31;;;26.59;39.10
65359;BME280;52491;45.900;6.346;2022-07-06T04:12:43;94403.03;;;26.60;38.95
65359;BME280;52491;45.900;6.346;2022-07-06T04:15:11;94406.78;;;26.59;38.67
65359;BME280;52491;45.900;6.346;2022-07-06T04:17:38;94403.31;;;26.59;38.76
65359;BME280;52491;45.900;6.346;2022-07-06T04:20:21;94407.03;;;26.58;39.03
65359;BME280;52491;45.900;6.346;2022-07-06T04:22:47;94408.91;;;26.57;38.70
65359;BME280;52491;45.900;6.346;2022-07-06T04:25:14;94406.22;;;26.57;38.53
65359;BME280;52491;45.900;6.346;2022-07-06T04:27:40;94408.09;;;26.56;38.97
65359;BME280;52491;45.900;6.346;2022-07-06T04:30:08;94400.09;;;26.56;38.90
65359;BME280;52491;45.900;6.346;2022-07-06T04:32:34;94406.22;;;26.57;38.84
65359;BME280;52491;45.900;6.346;2022-07-06T04:35:01;94409.97;;;26.56;38.81
65359;BME280;52491;45.900;6.346;2022-07-06T04:37:27;94403.84;;;26.55;37.95
65359;BME280;52491;45.900;6.346;2022-07-06T04:39:53;94392.28;;;26.45;37.27
65359;BME280;52491;45.900;6.346;2022-07-06T04:42:18;94399.22;;;26.36;37.26
65359;BME280;52491;45.900;6.346;2022-07-06T04:44:44;94399.16;;;26.25;36.30
65359;BME280;52491;45.900;6.346;2022-07-06T04:47:11;94394.56;;;26.16;36.43
65359;BME280;52491;45.900;6.346;2022-07-06T04:49:37;94395.84;;;26.03;36.12
65359;BME280;52491;45.900;6.346;2022-07-06T04:52:03;94397.63;;;25.87;36.00
65359;BME280;52491;45.900;6.346;2022-07-06T04:54:29;94396.50;;;25.78;36.22
65359;BME280;52491;45.900;6.346;2022-07-06T04:56:55;94387.38;;;25.74;36.14
65359;BME280;52491;45.900;6.346;2022-07-06T04:59:20;94390.84;;;25.69;36.06
65359;BME280;52491;45.900;6.346;2022-07-06T05:01:46;94380.69;;;25.66;36.52
65359;BME280;52491;45.900;6.346;2022-07-06T05:04:11;94390.47;;;25.55;36.67
65359;BME280;52491;45.900;6.346;2022-07-06T05:06:37;94389.25;;;25.31;37.04
65359;BME280;52491;45.900;6.346;2022-07-06T05:09:03;94389.00;;;25.05;36.95
65359;BME280;52491;45.900;6.346;2022-07-06T05:11:29;94387.81;;;24.91;37.44
65359;BME280;52491;45.900;6.346;2022-07-06T05:13:54;94387.25;;;24.89;37.56
65359;BME280;52491;45.900;6.346;2022-07-06T05:16:20;94384.31;;;24.85;37.92
65359;BME280;52491;45.900;6.346;2022-07-06T05:18:46;94384.25;;;24.80;37.76
65359;BME280;52491;45.900;6.346;2022-07-06T05:21:12;94385.31;;;24.79;38.25
65359;BME280;52491;45.900;6.346;2022-07-06T05:23:38;94384.47;;;24.73;38.09
65359;BME280;52491;45.900;6.346;2022-07-06T05:26:03;94384.97;;;24.70;38.40
65359;BME280;52491;45.900;6.346;2022-07-06T05:28:29;94382.56;;;24.69;38.45
65359;BME280;52491;45.900;6.346;2022-07-06T05:30:55;94381.75;;;24.68;38.34
65359;BME280;52491;45.900;6.346;2022-07-06T05:33:20;94379.66;;;24.70;38.43
65359;BME280;52491;45.900;6.346;2022-07-06T05:35:46;94375.91;;;24.71;38.84
65359;BME280;52491;45.900;6.346;2022-07-06T05:38:11;94378.81;;;24.70;38.27
65359;BME280;52491;45.900;6.346;2022-07-06T05:40:37;94377.22;;;24.69;38.97
65359;BME280;52491;45.900;6.346;2022-07-06T05:43:03;94378.28;;;24.68;38.61
65359;BME280;52491;45.900;6.346;2022-07-06T05:45:29;94378.53;;;24.66;38.70
65359;BME280;52491;45.900;6.346;2022-07-06T05:47:55;94375.28;;;24.64;38.40
65359;BME280;52491;45.900;6.346;2022-07-06T05:50:39;94372.09;;;24.62;39.02
65359;BME280;52491;45.900;6.346;2022-07-06T05:53:05;94364.63;;;24.64;38.79
65359;BME280;52491;45.900;6.346;2022-07-06T05:55:32;94366.25;;;24.65;38.49
65359;BME280;52491;45.900;6.346;2022-07-06T05:57:58;94363.03;;;24.63;38.74
65359;BME280;52491;45.900;6.346;2022-07-06T06:00:24;94371.03;;;24.63;38.63
65359;BME280;52491;45.900;6.346;2022-07-06T06:02:50;94368.38;;;24.63;39.05
65359;BME280;52491;45.900;6.346;2022-07-06T06:05:17;94376.94;;;24.65;38.50
65359;BME280;52491;45.900;6.346;2022-07-06T06:07:43;94377.72;;;24.66;38.95
65359;BME280;52491;45.900;6.346;2022-07-06T06:10:11;94374.25;;;24.65;38.79
65359;BME280;52491;45.900;6.346;2022-07-06T06:12:38;94374.25;;;24.65;38.45
65359;BME280;52491;45.900;6.346;2022-07-06T06:15:04;94376.94;;;24.65;38.49
65359;BME280;52491;45.900;6.346;2022-07-06T06:17:31;94380.69;;;24.69;38.22
65359;BME280;52491;45.900;6.346;2022-07-06T06:19:57;94381.25;;;24.71;38.33
65359;BME280;52491;45.900;6.346;2022-07-06T06:22:22;94380.75;;;24.74;38.08
65359;BME280;52491;45.900;6.346;2022-07-06T06:24:48;94379.66;;;24.75;38.35
65359;BME280;52491;45.900;6.346;2022-07-06T06:27:14;94382.34;;;24.75;38.48
65359;BME280;52491;45.900;6.346;2022-07-06T06:29:40;94375.16;;;24.76;38.01
65359;BME280;52491;45.900;6.346;2022-07-06T06:32:06;94376.75;;;24.77;38.62
65359;BME280;52491;45.900;6.346;2022-07-06T06:34:32;94373.03;;;24.78;38.20
65359;BME280;52491;45.900;6.346;2022-07-06T06:36:58;94378.13;;;24.79;38.27
65359;BME280;52491;45.900;6.346;2022-07-06T06:39:25;94374.69;;;24.84;38.71
65359;BME280;52491;45.900;6.346;2022-07-06T06:41:50;94375.50;;;24.85;38.66
65359;BME280;52491;45.900;6.346;2022-07-06T06:44:16;94379.78;;;24.86;38.36
65359;BME280;52491;45.900;6.346;2022-07-06T06:46:43;94380.56;;;24.86;38.26
65359;BME280;52491;45.900;6.346;2022-07-06T06:49:09;94383.53;;;24.90;38.23
65359;BME280;52491;45.900;6.346;2022-07-06T06:51:35;94382.50;;;24.91;38.03
65359;BME280;52491;45.900;6.346;2022-07-06T06:54:03;94381.44;;;24.92;38.28
65359;BME280;52491;45.900;6.346;2022-07-06T06:56:30;94379.31;;;24.94;38.22
65359;BME280;52491;45.900;6.346;2022-07-06T06:58:55;94383.91;;;24.98;38.22
65359;BME280;52491;45.900;6.346;2022-07-06T07:01:21;94378.06;;;25.01;37.94
65359;BME280;52491;45.900;6.346;2022-07-06T07:03:47;94379.41;;;25.04;38.09
65359;BME280;52491;45.900;6.346;2022-07-06T07:06:12;94374.06;;;25.04;38.36
65359;BME280;52491;45.900;6.346;2022-07-06T07:08:38;94376.75;;;25.04;38.57
65359;BME280;52491;45.900;6.346;2022-07-06T07:11:04;94377.28;;;25.06;38.18
65359;BME280;52491;45.900;6.346;2022-07-06T07:13:29;94375.16;;;25.08;38.33
65359;BME280;52491;45.900;6.346;2022-07-06T07:15:55;94378.63;;;25.09;37.95
65359;BME280;52491;45.900;6.346;2022-07-06T07:18:20;94381.06;;;25.10;38.35
65359;BME280;52491;45.900;6.346;2022-07-06T07:20:46;94383.22;;;25.13;38.34
65359;BME280;52491;45.900;6.346;2022-07-06T07:23:12;94378.19;;;25.17;37.81
65359;BME280;52491;45.900;6.346;2022-07-06T07:25:37;94385.97;;;25.18;37.54
65359;BME280;52491;45.900;6.346;2022-07-06T07:28:06;94376.88;;;25.19;37.57
65359;BME280;52491;45.900;6.346;2022-07-06T07:30:31;94381.72;;;25.22;37.67
65359;BME280;52491;45.900;6.346;2022-07-06T07:32:57;94378.78;;;25.24;37.53
65359;BME280;52491;45.900;6.346;2022-07-06T07:35:25;94385.50;;;25.27;37.99
65359;BME280;52491;45.900;6.346;2022-07-06T07:37:51;94387.09;;;25.28;37.78
65359;BME280;52491;45.900;6.346;2022-07-06T07:40:17;94379.09;;;25.28;37.83
65359;BME280;52491;45.900;6.346;2022-07-06T07:42:42;94376.69;;;25.31;37.51
65359;BME280;52491;45.900;6.346;2022-07-06T07:45:09;94375.94;;;25.36;37.36
65359;BME280;52491;45.900;6.346;2022-07-06T07:47:35;94382.88;;;25.37;37.27
65359;BME280;52491;45.900;6.346;2022-07-06T07:50:01;94373.78;;;25.33;37.31
65359;BME280;52491;45.900;6.346;2022-07-06T07:52:26;94368.97;;;25.30;37.68
65359;BME280;52491;45.900;6.346;2022-07-06T07:54:52;94364.47;;;25.35;37.23
65359;BME280;52491;45.900;6.346;2022-07-06T07:57:17;94365.81;;;25.38;37.57
65359;BME280;52491;45.900;6.346;2022-07-06T07:59:43;94369.00;;;25.40;37.14
65359;BME280;52491;45.900;6.346;2022-07-06T08:02:09;94368.50;;;25.43;37.13
65359;BME280;52491;45.900;6.346;2022-07-06T08:04:34;94367.19;;;25.45;37.28
65359;BME280;52491;45.900;6.346;2022-07-06T08:07:00;94369.34;;;25.49;37.51
65359;BME280;52491;45.900;6.346;2022-07-06T08:09:26;94372.56;;;25.51;37.18
65359;BME280;52491;45.900;6.346;2022-07-06T08:11:51;94365.91;;;25.53;36.93
65359;BME280;52491;45.900;6.346;2022-07-06T08:14:17;94361.13;;;25.55;36.87
65359;BME280;52491;45.900;6.346;2022-07-06T08:16:43;94363.00;;;25.60;36.81
65359;BME280;52491;45.900;6.346;2022-07-06T08:19:09;94358.47;;;25.60;36.65
65359;BME280;52491;45.900;6.346;2022-07-06T08:21:35;94357.69;;;25.65;36.84
65359;BME280;52491;45.900;6.346;2022-07-06T08:24:01;94351.03;;;25.67;36.78
65359;BME280;52491;45.900;6.346;2022-07-06T08:26:27;94348.91;;;25.70;36.82
65359;BME280;52491;45.900;6.346;2022-07-06T08:28:53;94349.19;;;25.73;36.49
65359;BME280;52491;45.900;6.346;2022-07-06T08:31:19;94343.03;;;25.67;36.67
65359;BME280;52491;45.900;6.346;2022-07-06T08:33:45;94347.00;;;25.65;36.58
65359;BME280;52491;45.900;6.346;2022-07-06T08:36:10;94342.50;;;25.65;36.58
65359;BME280;52491;45.900;6.346;2022-07-06T08:38:36;94335.28;;;25.66;36.20
65359;BME280;52491;45.900;6.346;2022-07-06T08:41:02;94335.00;;;25.67;36.25
65359;BME280;52491;45.900;6.346;2022-07-06T08:43:32;94333.97;;;25.74;36.09
65359;BME280;52491;45.900;6.346;2022-07-06T08:45:58;94335.59;;;25.75;36.12
65359;BME280;52491;45.900;6.346;2022-07-06T08:48:24;94335.06;;;25.78;36.23
65359;BME280;52491;45.900;6.346;2022-07-06T08:50:53;94342.00;;;25.79;35.97
65359;BME280;52491;45.900;6.346;2022-07-06T08:53:20;94337.47;;;25.79;36.55
65359;BME280;52491;45.900;6.346;2022-07-06T08:55:47;94329.19;;;25.81;36.11
65359;BME280;52491;45.900;6.346;2022-07-06T08:58:13;94335.66;;;25.85;36.55
65359;BME280;52491;45.900;6.346;2022-07-06T09:00:39;94333.81;;;25.85;36.30
65359;BME280;52491;45.900;6.346;2022-07-06T09:03:07;94335.94;;;25.88;36.21
65359;BME280;52491;45.900;6.346;2022-07-06T09:05:34;94335.44;;;25.92;36.35
65359;BME280;52491;45.900;6.346;2022-07-06T09:08:02;94337.03;;;25.93;36.62
65359;BME280;52491;45.900;6.346;2022-07-06T09:10:27;94339.44;;;25.94;36.30
65359;BME280;52491;45.900;6.346;2022-07-06T09:13:01;94344.25;;;25.97;36.31
65359;BME280;52491;45.900;6.346;2022-07-06T09:15:30;94338.38;;;25.95;36.62
65359;BME280;52491;45.900;6.346;2022-07-06T09:17:56;94341.31;;;25.99;36.01
65359;BME280;52491;45.900;6.346;2022-07-06T09:20:23;94340.28;;;26.00;35.86
65359;BME280;52491;45.900;6.346;2022-07-06T09:22:50;94340.28;;;26.05;36.25
65359;BME280;52491;45.900;6.346;2022-07-06T09:25:16;94338.41;;;26.05;36.00
65359;BME280;52491;45.900;6.346;2022-07-06T09:27:44;94345.91;;;26.08;36.05
65359;BME280;52491;45.900;6.346;2022-07-06T09:30:16;94336.03;;;26.09;35.63
65359;BME280;52491;45.900;6.346;2022-07-06T09:32:47;94336.28;;;26.12;36.22
65359;BME280;52491;45.900;6.346;2022-07-06T09:35:35;94337.09;;;26.13;36.23
65359;BME280;52491;45.900;6.346;2022-07-06T09:38:13;94331.75;;;26.13;36.43
65359;BME280;52491;45.900;6.346;2022-07-06T09:40:43;94337.38;;;26.17;36.05
65359;BME280;52491;45.900;6.346;2022-07-06T09:43:17;94332.59;;;26.19;36.27
65359;BME280;52491;45.900;6.346;2022-07-06T09:45:49;94328.28;;;26.18;36.05
65359;BME280;52491;45.900;6.346;2022-07-06T09:48:19;94322.16;;;26.17;35.83
65359;BME280;52491;45.900;6.346;2022-07-06T09:50:53;94321.34;;;26.17;35.97
65359;BME280;52491;45.900;6.346;2022-07-06T09:53:20;94322.16;;;26.17;36.54
65359;BME280;52491;45.900;6.346;2022-07-06T09:55:49;94326.41;;;26.18;36.81
65359;BME280;52491;45.900;6.346;2022-07-06T09:58:16;94320.28;;;26.18;36.14
65359;BME280;52491;45.900;6.346;2022-07-06T10:00:42;94321.63;;;26.20;36.37
65359;BME280;52491;45.900;6.346;2022-07-06T10:03:08;94324.06;;;26.22;36.78
65359;BME280;52491;45.900;6.346;2022-07-06T10:05:38;94327.53;;;26.22;36.29
65359;BME280;52491;45.900;6.346;2022-07-06T10:08:05;94332.06;;;26.22;36.62
65359;BME280;52491;45.900;6.346;2022-07-06T10:10:35;94329.41;;;26.22;36.34
65359;BME280;52491;45.900;6.346;2022-07-06T10:13:01;94332.88;;;26.22;36.30
65359;BME280;52491;45.900;6.346;2022-07-06T10:15:30;94329.13;;;26.23;36.50
65359;BME280;52491;45.900;6.346;2022-07-06T10:18:07;94316.56;;;26.24;36.38
65359;BME280;52491;45.900;6.346;2022-07-06T10:20:35;94322.72;;;26.24;36.68
65359;BME280;52491;45.900;6.346;2022-07-06T10:23:07;94317.91;;;26.26;36.67
65359;BME280;52491;45.900;6.346;2022-07-06T10:25:34;94322.19;;;26.27;36.75
65359;BME280;52491;45.900;6.346;2022-07-06T10:28:00;94330.22;;;26.27;36.37
65359;BME280;52491;45.900;6.346;2022-07-06T10:30:27;94332.34;;;26.30;36.30
65359;BME280;52491;45.900;6.346;2022-07-06T10:32:54;94333.16;;;26.31;36.31
65359;BME280;52491;45.900;6.346;2022-07-06T10:35:21;94327.81;;;26.31;36.43
65359;BME280;52491;45.900;6.346;2022-07-06T10:38:07;94341.97;;;26.31;35.82
65359;BME280;52491;45.900;6.346;2022-07-06T10:40:38;94333.16;;;26.31;35.81
65359;BME280;52491;45.900;6.346;2022-07-06T10:43:22;94335.53;;;26.32;36.00
65359;BME280;52491;45.900;6.346;2022-07-06T10:45:49;94331.53;;;26.35;36.52
65359;BME280;52491;45.900;6.346;2022-07-06T10:48:16;94323.53;;;26.35;36.25
65359;BME280;52491;45.900;6.346;2022-07-06T10:53:26;94332.63;;;26.39;36.55
65359;BME280;52491;45.900;6.346;2022-07-06T10:55:56;94324.34;;;26.41;36.24
65359;BME280;52491;45.900;6.346;2022-07-06T11:01:07;94332.91;;;26.43;36.22
65359;BME280;52491;45.900;6.346;2022-07-06T11:03:37;94331.31;;;26.42;36.02
65359;BME280;52491;45.900;6.346;2022-07-06T11:06:14;94326.47;;;26.44;36.18
65359;BME280;52491;45.900;6.346;2022-07-06T11:08:51;94327.31;;;26.44;36.47
65359;BME280;52491;45.900;6.346;2022-07-06T11:11:38;94327.56;;;26.43;36.53
65359;BME280;52491;45.900;6.346;2022-07-06T11:14:08;94316.63;;;26.44;36.19
65359;BME280;52491;45.900;6.346;2022-07-06T11:19:10;94323.81;;;26.49;36.25
65359;BME280;52491;45.900;6.346;2022-07-06T11:21:50;94319.28;;;26.49;36.08
65359;BME280;52491;45.900;6.346;2022-07-06T11:24:29;94319.56;;;26.48;35.88
65359;BME280;52491;45.900;6.346;2022-07-06T11:26:57;94317.69;;;26.48;35.66
65359;BME280;52491;45.900;6.346;2022-07-06T11:29:26;94311.03;;;26.51;35.78
65359;BME280;52491;45.900;6.346;2022-07-06T11:31:58;94312.38;;;26.53;36.11
65359;BME280;52491;45.900;6.346;2022-07-06T11:34:30;94310.78;;;26.52;35.98
65359;BME280;52491;45.900;6.346;2022-07-06T11:36:58;94302.75;;;26.52;35.94
65359;BME280;52491;45.900;6.346;2022-07-06T11:39:34;94305.16;;;26.54;35.88
65359;BME280;52491;45.900;6.346;2022-07-06T11:42:01;94306.22;;;26.53;35.69
65359;BME280;52491;45.900;6.346;2022-07-06T11:44:30;94302.22;;;26.55;35.72
65359;BME280;52491;45.900;6.346;2022-07-06T11:46:57;94295.25;;;26.54;35.90
65359;BME280;52491;45.900;6.346;2022-07-06T11:49:26;94296.03;;;26.55;35.77
65359;BME280;52491;45.900;6.346;2022-07-06T11:51:52;94293.13;;;26.56;35.89
65359;BME280;52491;45.900;6.346;2022-07-06T11:54:19;94290.19;;;26.58;35.77
65359;BME280;52491;45.900;6.346;2022-07-06T11:56:54;94288.31;;;26.59;35.87
65359;BME280;52491;45.900;6.346;2022-07-06T11:59:25;94285.66;;;26.59;35.88
65359;BME280;52491;45.900;6.346;2022-07-06T12:02:07;94274.94;;;26.59;35.78
65359;BME280;52491;45.900;6.346;2022-07-06T12:04:35;94270.41;;;26.59;35.74
65359;BME280;52491;45.900;6.346;2022-07-06T12:07:04;94273.88;;;26.60;35.61
65359;BME280;52491;45.900;6.346;2022-07-06T12:09:35;94273.88;;;26.60;35.57
65359;BME280;52491;45.900;6.346;2022-07-06T12:12:02;94272.28;;;26.59;34.95
65359;BME280;52491;45.900;6.346;2022-07-06T12:14:30;94272.78;;;26.61;35.27
65359;BME280;52491;45.900;6.346;2022-07-06T12:19:32;94263.97;;;26.65;35.77
65359;BME280;52491;45.900;6.346;2022-07-06T12:21:58;94263.72;;;26.67;35.51
65359;BME280;52491;45.900;6.346;2022-07-06T12:24:27;94258.09;;;26.68;35.45
65359;BME280;52491;45.900;6.346;2022-07-06T12:26:54;94261.56;;;26.69;35.53
65359;BME280;52491;45.900;6.346;2022-07-06T12:29:20;94257.84;;;26.70;35.51
65359;BME280;52491;45.900;6.346;2022-07-06T12:31:48;94260.22;;;26.71;35.40
65359;BME280;52491;45.900;6.346;2022-07-06T12:34:19;94258.34;;;26.72;35.36
65359;BME280;52491;45.900;6.346;2022-07-06T12:36:56;94261.56;;;26.74;35.29
65359;BME280;52491;45.900;6.346;2022-07-06T12:39:24;94253.53;;;26.74;35.25
65359;BME280;52491;45.900;6.346;2022-07-06T12:41:56;94254.34;;;26.74;35.54
65359;BME280;52491;45.900;6.346;2022-07-06T12:44:25;94262.09;;;26.76;35.01
65359;BME280;52491;45.900;6.346;2022-07-06T12:47:03;94258.88;;;26.74;34.62
65359;BME280;52491;45.900;6.346;2022-07-06T12:49:29;94250.88;;;26.74;34.61
65359;BME280;52491;45.900;6.346;2022-07-06T12:51:59;94247.13;;;26.75;35.15
65359;BME280;52491;45.900;6.346;2022-07-06T12:54:33;94248.72;;;26.76;34.93
65359;BME280;52491;45.900;6.346;2022-07-06T12:57:14;94242.59;;;26.75;34.79
65359;BME280;52491;45.900;6.346;2022-07-06T12:59:48;94239.63;;;26.77;34.78
65359;BME280;52491;45.900;6.346;2022-07-06T13:05:05;94237.22;;;26.75;35.03
65359;BME280;52491;45.900;6.346;2022-07-06T13:07:32;94237.78;;;26.77;35.08
65359;BME280;52491;45.900;6.346;2022-07-06T13:10:01;94239.63;;;26.82;34.80
65359;BME280;52491;45.900;6.346;2022-07-06T13:12:27;94233.22;;;26.83;35.04
65359;BME280;52491;45.900;6.346;2022-07-06T13:14:53;94227.34;;;26.81;35.08